Time;durP1;ratioP1;P1;durP2;ratioP2;P2;SDS_P1;SDS_P2;PMS_P1;PMS_P2;Temp;Humidity;BMP_temperature;BMP_pressure;BME280_temperature;BME280_humidity;BME280_pressure;Samples;Min_cycle;Max_cycle;Signal;HPM_P1;HPM_P2
2023/10/13 00:00:36;;;;;;;24.60;16.60;;;12.40;99.90;;;;;;5061645;28;20039;-80
2023/10/13 00:03:08;;;;;;;24.05;16.52;;;12.30;99.90;;;;;;5055263;28;20049;-78
2023/10/13 00:05:37;;;;;;;23.50;15.80;;;12.30;99.90;;;;;;5060234;28;20041;-80
2023/10/13 00:08:07;;;;;;;27.08;16.70;;;12.40;99.90;;;;;;5056108;28;20036;-79
2023/10/13 00:10:34;;;;;;;26.27;15.77;;;12.40;99.90;;;;;;5064163;28;20039;-78
2023/10/13 00:13:11;;;;;;;26.80;15.13;;;12.40;99.90;;;;;;5063156;28;20033;-78
2023/10/13 00:15:46;;;;;;;22.35;14.00;;;12.50;99.90;;;;;;5066130;28;20462;-80
2023/10/13 00:18:14;;;;;;;21.33;13.82;;;12.40;99.90;;;;;;5062727;28;20044;-80
2023/10/13 00:20:48;;;;;;;23.13;14.55;;;12.30;99.90;;;;;;5085623;28;20045;-81
2023/10/13 00:23:20;;;;;;;22.60;14.40;;;12.20;99.90;;;;;;5063490;28;20129;-79
2023/10/13 00:25:56;;;;;;;27.00;14.68;;;12.10;99.90;;;;;;5062082;28;20449;-80
2023/10/13 00:28:26;;;;;;;23.40;14.57;;;12.10;99.90;;;;;;5060765;28;20072;-80
2023/10/13 00:31:04;;;;;;;22.20;15.00;;;12.10;99.90;;;;;;5060135;28;20481;-78
2023/10/13 00:33:33;;;;;;;22.60;14.27;;;12.10;99.90;;;;;;5085634;28;20060;-78
2023/10/13 00:36:01;;;;;;;24.25;15.38;;;12.10;99.90;;;;;;5062382;28;20037;-79
2023/10/13 00:38:28;;;;;;;24.73;14.88;;;12.10;99.90;;;;;;5061035;28;20139;-78
2023/10/13 00:41:03;;;;;;;22.08;14.82;;;12.10;99.90;;;;;;5061073;28;20071;-76
2023/10/13 00:43:34;;;;;;;22.15;14.70;;;12.10;99.90;;;;;;5061348;28;20137;-77
2023/10/13 00:46:12;;;;;;;21.13;14.25;;;12.00;99.90;;;;;;5060539;28;20080;-78
2023/10/13 00:48:51;;;;;;;27.13;15.80;;;11.90;99.90;;;;;;5060235;28;20044;-79
2023/10/13 00:51:32;;;;;;;25.38;17.05;;;11.90;99.90;;;;;;5061366;28;20564;-80
2023/10/13 00:54:02;;;;;;;24.92;16.75;;;11.80;99.90;;;;;;5059696;28;20045;-79
2023/10/13 00:56:31;;;;;;;25.52;16.15;;;11.80;99.90;;;;;;5084412;28;20045;-80
2023/10/13 00:59:02;;;;;;;20.80;15.18;;;11.90;99.90;;;;;;5075707;28;20102;-80
2023/10/13 01:01:32;;;;;;;26.65;15.77;;;11.80;99.90;;;;;;5060109;28;20056;-78
2023/10/13 01:03:59;;;;;;;24.48;16.00;;;11.90;99.90;;;;;;5063664;28;20035;-81
2023/10/13 01:06:28;;;;;;;21.58;14.23;;;11.90;99.90;;;;;;5059249;28;20087;-80
2023/10/13 01:08:59;;;;;;;25.75;15.68;;;11.90;99.90;;;;;;5059070;28;20067;-80
2023/10/13 01:11:29;;;;;;;28.10;17.17;;;11.80;99.90;;;;;;5086661;28;20075;-77
2023/10/13 01:13:57;;;;;;;40.97;24.75;;;12.00;99.90;;;;;;5078678;28;20040;-80
2023/10/13 01:16:26;;;;;;;24.48;15.80;;;11.90;99.90;;;;;;5060330;28;20056;-79
2023/10/13 01:18:59;;;;;;;27.70;15.13;;;11.90;99.90;;;;;;5060993;28;20563;-81
2023/10/13 01:21:28;;;;;;;24.25;16.35;;;11.90;99.90;;;;;;5058575;28;20037;-78
2023/10/13 01:23:56;;;;;;;21.85;14.07;;;11.90;99.90;;;;;;5061954;28;20464;-78
2023/10/13 01:26:26;;;;;;;22.60;15.38;;;11.80;99.90;;;;;;5061768;28;20102;-78
2023/10/13 01:28:56;;;;;;;22.70;15.40;;;11.90;99.90;;;;;;5058558;28;20131;-80
2023/10/13 01:31:30;;;;;;;23.83;15.45;;;12.00;99.90;;;;;;5059811;28;20059;-80
2023/10/13 01:33:58;;;;;;;20.42;14.93;;;11.90;99.90;;;;;;5059214;28;20052;-81
2023/10/13 01:36:28;;;;;;;25.35;15.93;;;11.90;99.90;;;;;;5060143;28;20040;-78
2023/10/13 01:38:55;;;;;;;25.17;17.60;;;11.80;99.90;;;;;;5058261;28;20098;-77
2023/10/13 01:41:23;;;;;;;22.70;15.20;;;11.80;99.90;;;;;;5060711;28;20110;-79
2023/10/13 01:43:50;;;;;;;22.77;14.80;;;11.80;99.90;;;;;;5061745;28;20044;-80
2023/10/13 01:46:21;;;;;;;23.15;14.73;;;11.80;99.90;;;;;;5064402;28;20060;-80
2023/10/13 01:48:48;;;;;;;18.42;14.57;;;11.80;99.90;;;;;;5077832;28;20079;-79
2023/10/13 01:51:16;;;;;;;23.13;15.20;;;11.70;99.90;;;;;;5065338;28;20037;-80
2023/10/13 01:53:43;;;;;;;24.60;15.93;;;11.80;99.90;;;;;;5078685;28;20033;-79
2023/10/13 01:56:11;;;;;;;23.48;16.20;;;11.70;99.90;;;;;;5083721;28;20057;-79
2023/10/13 01:58:42;;;;;;;23.83;15.43;;;11.70;99.90;;;;;;5065404;28;20045;-80
2023/10/13 02:01:10;;;;;;;23.10;14.98;;;11.70;99.90;;;;;;5063102;28;20095;-81
2023/10/13 02:03:41;;;;;;;26.10;15.57;;;11.70;99.90;;;;;;5057780;28;20594;-79
2023/10/13 02:06:16;;;;;;;22.30;15.75;;;11.50;99.90;;;;;;5064898;28;20074;-80
2023/10/13 02:08:47;;;;;;;24.63;16.17;;;11.60;99.90;;;;;;5055974;28;20049;-80
2023/10/13 02:11:18;;;;;;;19.85;15.02;;;11.60;99.90;;;;;;5057641;28;20154;-80
2023/10/13 02:13:48;;;;;;;23.35;15.63;;;11.70;99.90;;;;;;5063073;28;20048;-80
2023/10/13 02:16:21;;;;;;;23.70;15.40;;;11.60;99.90;;;;;;5082842;28;20080;-79
2023/10/13 02:18:52;;;;;;;22.98;15.32;;;11.50;99.90;;;;;;5059351;28;20564;-78
2023/10/13 02:21:19;;;;;;;23.60;16.20;;;11.40;99.90;;;;;;5055791;28;20079;-79
2023/10/13 02:23:46;;;;;;;24.10;16.92;;;11.40;99.90;;;;;;5058511;28;20139;-77
2023/10/13 02:26:27;;;;;;;24.65;16.80;;;11.40;99.90;;;;;;5058872;28;20041;-80
2023/10/13 02:28:57;;;;;;;22.95;15.63;;;11.40;99.90;;;;;;5082331;28;20488;-80
2023/10/13 02:31:24;;;;;;;21.63;14.50;;;11.40;99.90;;;;;;5084034;28;20053;-79
2023/10/13 02:33:51;;;;;;;25.27;15.38;;;11.40;99.90;;;;;;5084278;28;20095;-80
2023/10/13 02:36:22;;;;;;;19.50;14.38;;;11.40;99.90;;;;;;5058394;28;20090;-78
2023/10/13 02:38:50;;;;;;;22.95;14.48;;;11.30;99.90;;;;;;5072782;28;20049;-78
2023/10/13 02:41:25;;;;;;;21.73;13.75;;;11.30;99.90;;;;;;5056609;28;20086;-79
2023/10/13 02:43:52;;;;;;;20.35;14.27;;;11.30;99.90;;;;;;5067416;28;20058;-81
2023/10/13 02:46:21;;;;;;;21.23;13.85;;;11.30;99.90;;;;;;5059532;28;20068;-80
2023/10/13 02:48:52;;;;;;;18.60;13.65;;;11.30;99.90;;;;;;5059043;28;20041;-79
2023/10/13 02:51:25;;;;;;;21.55;13.90;;;11.30;99.90;;;;;;5057215;28;20578;-79
2023/10/13 02:53:52;;;;;;;21.40;13.50;;;11.20;99.90;;;;;;5059039;28;20044;-80
2023/10/13 02:56:21;;;;;;;21.15;13.43;;;11.20;99.90;;;;;;5059486;28;20051;-79
2023/10/13 02:58:53;;;;;;;19.95;14.40;;;11.40;99.90;;;;;;5058389;28;20049;-79
2023/10/13 03:01:26;;;;;;;23.15;14.90;;;11.30;99.90;;;;;;5083114;28;20072;-79
2023/10/13 03:03:54;;;;;;;23.60;14.48;;;11.20;99.90;;;;;;5058006;28;20055;-78
2023/10/13 03:06:32;;;;;;;21.60;15.65;;;11.10;99.90;;;;;;5060075;28;20041;-78
2023/10/13 03:09:13;;;;;;;21.08;16.60;;;10.90;99.90;;;;;;5060830;28;20075;-79
2023/10/13 03:11:48;;;;;;;26.55;17.42;;;10.90;99.90;;;;;;5093717;28;20064;-77
2023/10/13 03:14:23;;;;;;;24.63;16.52;;;10.90;99.90;;;;;;5067695;28;20052;-79
2023/10/13 03:16:52;;;;;;;22.48;15.15;;;11.00;99.90;;;;;;5086397;28;20539;-81
2023/10/13 03:19:19;;;;;;;23.15;14.40;;;11.10;99.90;;;;;;5055916;28;20047;-80
2023/10/13 03:21:54;;;;;;;21.75;14.02;;;11.10;99.90;;;;;;5058797;28;20041;-80
2023/10/13 03:24:33;;;;;;;19.52;14.57;;;11.00;99.90;;;;;;5058606;28;20036;-79
2023/10/13 03:27:09;;;;;;;21.70;14.25;;;10.90;99.90;;;;;;5059757;28;20119;-79
2023/10/13 03:29:38;;;;;;;23.08;14.80;;;10.90;99.90;;;;;;5058814;28;20063;-79
2023/10/13 03:32:11;;;;;;;23.67;15.80;;;10.90;99.90;;;;;;5075419;28;20084;-80
2023/10/13 03:34:49;;;;;;;24.17;15.57;;;11.00;99.90;;;;;;5062614;28;20041;-81
2023/10/13 03:37:19;;;;;;;23.83;15.68;;;11.00;99.90;;;;;;5078421;28;20040;-79
2023/10/13 03:39:48;;;;;;;24.67;15.45;;;11.00;99.90;;;;;;5058280;28;20049;-78
2023/10/13 03:42:19;;;;;;;22.02;16.23;;;10.90;99.90;;;;;;5056847;28;20048;-80
2023/10/13 03:44:47;;;;;;;20.40;15.40;;;10.90;99.90;;;;;;5057134;28;20099;-80
2023/10/13 03:47:26;;;;;;;23.20;16.27;;;11.00;99.90;;;;;;5058726;28;20037;-79
2023/10/13 03:50:14;;;;;;;21.58;15.43;;;11.00;99.90;;;;;;5058991;28;20505;-80
2023/10/13 03:52:42;;;;;;;22.63;13.88;;;11.00;99.90;;;;;;5061228;28;20131;-78
2023/10/13 03:55:17;;;;;;;26.63;15.05;;;11.00;99.90;;;;;;5059143;28;20041;-81
2023/10/13 03:57:50;;;;;;;22.50;14.40;;;11.10;99.90;;;;;;5084108;28;20052;-80
2023/10/13 04:00:24;;;;;;;23.85;15.02;;;11.00;99.90;;;;;;5057621;28;20523;-80
2023/10/13 04:02:55;;;;;;;21.73;13.95;;;10.90;99.90;;;;;;5057872;28;20041;-79
2023/10/13 04:05:36;;;;;;;24.75;17.65;;;10.80;99.90;;;;;;5059056;28;20516;-80
2023/10/13 04:19:08;;;;;;;22.27;14.95;;;10.90;99.90;;;;;;5064295;28;20044;-78
2023/10/13 04:21:55;;;;;;;23.23;15.75;;;10.80;99.90;;;;;;5071467;28;20600;-78
2023/10/13 04:24:39;;;;;;;24.05;16.25;;;10.70;99.90;;;;;;5091273;28;20045;-79
2023/10/13 04:30:10;;;;;;;23.30;16.08;;;10.70;99.90;;;;;;5058156;28;20175;-78
2023/10/13 04:32:38;;;;;;;26.42;16.35;;;10.70;99.90;;;;;;5057625;28;20556;-79
2023/10/13 04:35:17;;;;;;;25.33;17.58;;;10.60;99.90;;;;;;5067318;28;20123;-78
2023/10/13 04:37:50;;;;;;;21.15;15.15;;;10.60;99.90;;;;;;5057618;28;20067;-78
2023/10/13 04:40:24;;;;;;;28.08;16.40;;;10.50;99.90;;;;;;5055238;28;20519;-80
2023/10/13 04:42:53;;;;;;;27.33;17.40;;;10.50;99.90;;;;;;5057468;28;20045;-79
2023/10/13 04:45:49;;;;;;;30.02;16.45;;;10.50;99.90;;;;;;5057274;28;20044;-76
2023/10/13 04:48:28;;;;;;;24.60;16.67;;;10.60;99.90;;;;;;5055458;28;20530;-76
2023/10/13 04:59:35;;;;;;;28.30;16.80;;;10.50;99.90;;;;;;5058184;28;20447;-79
2023/10/13 05:46:35;;;;;;;26.95;18.65;;;11.00;99.90;;;;;;5066987;28;20095;-80
2023/10/13 05:51:57;;;;;;;28.45;17.30;;;11.30;99.90;;;;;;5070602;28;20037;-79
2023/10/13 06:30:21;;;;;;;31.90;17.02;;;13.30;99.90;;;;;;5059351;28;20044;-78
2023/10/13 06:32:50;;;;;;;26.50;15.65;;;13.50;99.80;;;;;;5062801;28;20044;-79
2023/10/13 06:35:22;;;;;;;26.23;16.65;;;13.50;1.20;;;;;;5060583;28;20053;-78
2023/10/13 06:37:50;;;;;;;26.48;16.17;;;13.60;1.00;;;;;;5067387;28;20052;-78
2023/10/13 06:40:33;;;;;;;27.63;16.63;;;13.70;1.00;;;;;;5067675;28;20128;-77
2023/10/13 06:43:16;;;;;;;28.58;15.73;;;13.80;1.00;;;;;;5072780;28;20051;-76
2023/10/13 06:45:50;;;;;;;31.98;16.70;;;13.90;1.00;;;;;;5076163;28;20292;-79
2023/10/13 06:48:19;;;;;;;27.02;16.17;;;14.10;1.00;;;;;;5072290;28;20056;-78
2023/10/13 06:50:52;;;;;;;30.73;16.33;;;14.30;99.90;;;;;;5063257;28;20045;-78
2023/10/13 06:53:19;;;;;;;33.30;16.38;;;14.40;1.00;;;;;;5067120;28;20048;-77
2023/10/13 06:55:49;;;;;;;53.42;34.03;;;14.70;99.90;;;;;;5070103;28;20044;-78
2023/10/13 06:58:23;;;;;;;28.10;16.40;;;14.80;10.10;;;;;;5061393;28;20040;-77
2023/10/13 07:00:55;;;;;;;30.52;16.40;;;14.80;1.00;;;;;;5062656;28;20104;-79
2023/10/13 07:03:24;;;;;;;30.10;16.98;;;15.00;99.90;;;;;;5068402;28;20032;-77
2023/10/13 07:05:53;;;;;;;26.70;15.68;;;15.20;1.00;;;;;;5075450;28;20041;-76
2023/10/13 07:08:22;;;;;;;29.35;15.75;;;15.40;99.90;;;;;;5072944;28;20053;-78
2023/10/13 07:11:02;;;;;;;29.85;15.98;;;15.50;99.90;;;;;;5074365;28;20037;-78
2023/10/13 07:13:30;;;;;;;26.92;16.42;;;15.60;1.00;;;;;;5070568;28;20043;-78
2023/10/13 07:16:05;;;;;;;28.23;16.42;;;15.80;1.00;;;;;;5058986;28;20043;-78
2023/10/13 07:18:36;;;;;;;27.83;15.85;;;15.90;1.00;;;;;;5063799;28;20051;-79
2023/10/13 07:21:09;;;;;;;28.48;15.10;;;16.10;1.00;;;;;;5062892;28;20072;-78
2023/10/13 07:23:37;;;;;;;28.02;16.17;;;16.30;1.00;;;;;;5061885;28;20108;-78
2023/10/13 07:26:08;;;;;;;41.20;17.52;;;16.40;99.90;;;;;;5064435;28;20036;-79
2023/10/13 07:28:43;;;;;;;29.10;17.25;;;16.50;1.00;;;;;;5059346;28;20045;-80
2023/10/13 07:31:14;;;;;;;54.47;21.30;;;16.60;99.90;;;;;;5061748;28;20100;-78
2023/10/13 07:33:42;;;;;;;29.25;17.30;;;16.60;27.60;;;;;;5061253;28;20044;-78
2023/10/13 07:36:17;;;;;;;41.80;19.88;;;16.70;99.90;;;;;;5062272;28;20455;-80
2023/10/13 07:38:48;;;;;;;43.55;21.23;;;16.80;22.60;;;;;;5064312;28;20049;-78
2023/10/13 07:41:17;;;;;;;40.53;22.88;;;16.90;99.90;;;;;;5060242;28;20040;-80
2023/10/13 07:43:46;;;;;;;41.28;21.52;;;17.00;1.00;;;;;;5062282;28;20075;-77
2023/10/13 07:46:13;;;;;;;44.85;22.85;;;17.20;1.00;;;;;;5063962;28;20051;-78
2023/10/13 07:48:40;;;;;;;36.85;25.30;;;17.40;18.90;;;;;;5066364;28;20075;-77
2023/10/13 07:51:11;;;;;;;38.75;22.90;;;17.50;99.90;;;;;;5066123;28;20049;-77
2023/10/13 07:53:43;;;;;;;39.35;23.88;;;17.70;99.90;;;;;;5068098;28;20045;-79
2023/10/13 07:56:12;;;;;;;35.33;18.95;;;17.70;99.90;;;;;;5069937;28;20350;-78
2023/10/13 07:58:52;;;;;;;34.75;17.77;;;17.90;99.90;;;;;;5066921;28;20049;-77
2023/10/13 08:01:19;;;;;;;33.47;19.55;;;18.00;46.90;;;;;;5062397;28;20128;-79
2023/10/13 08:03:47;;;;;;;28.75;19.23;;;18.10;99.90;;;;;;5062643;28;20476;-79
2023/10/13 08:06:26;;;;;;;30.33;18.95;;;18.20;48.40;;;;;;5066368;28;20040;-77
2023/10/13 08:09:07;;;;;;;33.67;19.77;;;18.30;99.90;;;;;;5067519;28;20116;-78
2023/10/13 08:11:37;;;;;;;28.48;19.63;;;18.40;1.00;;;;;;5066446;28;20075;-79
2023/10/13 08:14:22;;;;;;;36.30;20.88;;;18.50;99.90;;;;;;5061484;28;20045;-78
2023/10/13 08:16:59;;;;;;;32.63;20.52;;;18.60;99.90;;;;;;5062307;28;20377;-78
2023/10/13 08:19:32;;;;;;;40.03;24.27;;;18.70;1.00;;;;;;5077360;28;20135;-77
2023/10/13 08:22:23;;;;;;;30.55;23.35;;;18.80;99.90;;;;;;5066066;28;20074;-79
2023/10/13 08:24:58;;;;;;;32.08;19.65;;;18.90;99.90;;;;;;5063116;28;20037;-79
2023/10/13 08:27:34;;;;;;;29.40;18.17;;;19.00;99.90;;;;;;5066097;28;20048;-78
2023/10/13 08:33:16;;;;;;;31.88;17.63;;;19.00;99.90;;;;;;5013535;28;20049;-79
2023/10/13 08:35:54;;;;;;;30.45;17.52;;;19.10;1.00;;;;;;5016198;28;20053;-79
2023/10/13 08:38:28;;;;;;;38.35;17.95;;;19.10;1.00;;;;;;5021327;28;20073;-77
2023/10/13 08:43:50;;;;;;;47.65;23.35;;;19.40;1.00;;;;;;5028788;28;20097;-77
2023/10/13 08:46:30;;;;;;;42.45;23.15;;;19.70;99.90;;;;;;5029507;28;20054;-76
2023/10/13 08:49:08;;;;;;;39.63;22.73;;;19.70;86.20;;;;;;5023723;28;20056;-76
2023/10/13 08:51:48;;;;;;;48.22;20.92;;;19.80;1.00;;;;;;5020531;28;20076;-78
2023/10/13 08:54:33;;;;;;;53.90;21.70;;;19.90;1.00;;;;;;5027789;28;20168;-79
2023/10/13 08:57:06;;;;;;;37.95;20.65;;;19.90;1.00;;;;;;5033085;28;20060;-79
2023/10/13 08:59:38;;;;;;;34.28;20.10;;;19.90;1.00;;;;;;5029993;28;20216;-79
2023/10/13 09:02:19;;;;;;;34.40;18.73;;;19.90;1.00;;;;;;5021460;28;20650;-77
2023/10/13 09:04:45;;;;;;;32.13;21.35;;;20.00;1.00;;;;;;4996948;28;20058;-78
2023/10/13 09:07:21;;;;;;;31.02;18.52;;;20.10;1.00;;;;;;5055421;28;20499;-79
2023/10/13 09:09:59;;;;;;;35.30;20.08;;;20.10;1.00;;;;;;5079344;28;20055;-79
2023/10/13 09:12:39;;;;;;;31.15;17.98;;;20.00;1.00;;;;;;5072918;28;20044;-78
2023/10/13 09:15:19;;;;;;;55.30;21.67;;;20.00;99.90;;;;;;5068447;28;20048;-79
2023/10/13 09:17:51;;;;;;;35.30;16.55;;;20.10;1.00;;;;;;5086854;28;20119;-78
2023/10/13 09:20:42;;;;;;;28.38;16.35;;;20.20;1.00;;;;;;5076748;28;20048;-79
2023/10/13 09:23:12;;;;;;;35.47;16.27;;;20.30;1.00;;;;;;5078058;28;20040;-80
2023/10/13 09:25:53;;;;;;;25.77;14.80;;;20.40;99.90;;;;;;5080942;28;20096;-81
2023/10/13 09:28:22;;;;;;;23.08;14.15;;;20.40;99.90;;;;;;5069314;28;20119;-80
2023/10/13 09:30:52;;;;;;;35.88;15.10;;;20.50;99.90;;;;;;5067692;28;20041;-78
2023/10/13 09:33:32;;;;;;;22.38;12.05;;;20.60;1.00;;;;;;5082983;28;20041;-78
2023/10/13 09:36:00;;;;;;;26.58;16.42;;;20.70;99.90;;;;;;5084734;28;20052;-78
2023/10/13 09:38:28;;;;;;;23.45;13.35;;;20.80;1.00;;;;;;5066830;28;20044;-79
2023/10/13 09:40:57;;;;;;;22.20;12.43;;;20.90;99.90;;;;;;5062275;28;20051;-79
2023/10/13 09:43:51;;;;;;;26.48;12.30;;;20.90;1.00;;;;;;5063391;28;20044;-78
2023/10/13 09:46:23;;;;;;;30.05;15.70;;;21.10;1.00;;;;;;5065954;28;20068;-78
2023/10/13 09:49:04;;;;;;;28.50;17.25;;;21.30;1.00;;;;;;5058838;28;20048;-79
2023/10/13 09:51:32;;;;;;;25.35;13.60;;;21.50;1.00;;;;;;5065083;28;20496;-78
2023/10/13 09:54:09;;;;;;;19.02;11.40;;;21.60;1.00;;;;;;5064646;28;20065;-80
2023/10/13 09:56:51;;;;;;;21.45;13.32;;;21.80;16.10;;;;;;5061326;28;20033;-80
2023/10/13 09:59:22;;;;;;;20.10;11.57;;;21.80;99.90;;;;;;5064258;28;20044;-78
2023/10/13 10:01:51;;;;;;;21.50;10.73;;;21.90;99.90;;;;;;5063056;28;20036;-79
2023/10/13 10:04:20;;;;;;;21.50;11.07;;;21.90;99.90;;;;;;5060403;28;20155;-80
2023/10/13 10:06:53;;;;;;;21.55;12.00;;;22.00;99.90;;;;;;5062910;28;20094;-80
2023/10/13 10:09:30;;;;;;;21.13;10.13;;;22.00;99.90;;;;;;5061650;28;20060;-79
2023/10/13 10:12:25;;;;;;;22.00;9.65;;;22.00;99.90;;;;;;5061445;28;20041;-79
2023/10/13 10:15:30;;;;;;;22.30;9.18;;;22.10;99.90;;;;;;5063079;28;20852;-80
2023/10/13 10:17:58;;;;;;;19.58;10.10;;;22.10;99.90;;;;;;5051343;28;20064;-79
2023/10/13 10:20:44;;;;;;;20.08;9.70;;;22.10;99.90;;;;;;5077507;28;20044;-80
2023/10/13 10:23:22;;;;;;;17.95;9.13;;;22.20;99.90;;;;;;5073592;28;20049;-80
2023/10/13 10:25:51;;;;;;;17.38;9.00;;;22.30;99.90;;;;;;5076729;28;20040;-79
2023/10/13 10:28:19;;;;;;;21.65;12.98;;;22.30;99.90;;;;;;5076679;28;20069;-79
2023/10/13 10:30:47;;;;;;;21.98;9.45;;;22.50;99.90;;;;;;5072195;28;20055;-80
2023/10/13 10:33:15;;;;;;;78.22;20.05;;;22.60;99.90;;;;;;5085594;28;20049;-80
2023/10/13 10:35:46;;;;;;;29.52;12.07;;;22.60;99.90;;;;;;5090329;28;20053;-81
2023/10/13 10:38:23;;;;;;;18.30;10.63;;;22.60;99.90;;;;;;5100338;28;20056;-82
2023/10/13 10:41:00;;;;;;;21.27;11.07;;;22.60;99.90;;;;;;5088334;28;20129;-79
2023/10/13 10:43:41;;;;;;;22.33;10.60;;;22.60;99.90;;;;;;5076058;28;20040;-79
2023/10/13 10:46:10;;;;;;;32.15;11.60;;;22.70;99.90;;;;;;5081431;28;20044;-79
2023/10/13 10:48:42;;;;;;;17.83;9.70;;;22.70;99.90;;;;;;5072611;28;20037;-81
2023/10/13 10:51:21;;;;;;;17.88;8.85;;;22.80;99.90;;;;;;5059868;28;20055;-81
2023/10/13 10:53:50;;;;;;;15.82;9.00;;;22.80;99.90;;;;;;5073052;28;20062;-83
2023/10/13 10:56:42;;;;;;;16.55;9.27;;;22.90;99.90;;;;;;5066290;28;20416;-84
2023/10/13 10:59:18;;;;;;;17.20;9.23;;;22.90;99.90;;;;;;5066155;28;20045;-85
2023/10/13 11:01:50;;;;;;;19.88;9.40;;;23.00;99.90;;;;;;5067269;28;20048;-84
2023/10/13 11:04:24;;;;;;;16.38;8.10;;;23.10;99.90;;;;;;5066719;28;20091;-84
2023/10/13 11:14:22;;;;;;;14.05;8.15;;;23.30;99.90;;;;;;5010424;28;20095;-83
2023/10/13 11:20:02;;;;;;;20.05;9.68;;;23.60;99.90;;;;;;5067449;28;20278;-84
2023/10/13 11:22:47;;;;;;;32.95;20.88;;;23.70;99.90;;;;;;5078374;28;20045;-84
2023/10/13 11:25:29;;;;;;;57.35;38.40;;;23.70;99.90;;;;;;5032710;28;20052;-85
2023/10/13 11:27:58;;;;;;;89.63;63.83;;;23.70;99.90;;;;;;5058539;28;20045;-82
2023/10/13 11:30:29;;;;;;;48.42;33.05;;;23.70;99.90;;;;;;5088642;28;20044;-84
2023/10/13 11:33:07;;;;;;;39.97;23.58;;;23.70;99.90;;;;;;5087453;28;20613;-84
2023/10/13 11:35:56;;;;;;;30.17;20.20;;;23.70;99.90;;;;;;5063079;28;20043;-83
2023/10/13 11:38:26;;;;;;;35.33;24.05;;;23.70;99.90;;;;;;5056827;28;20080;-84
2023/10/13 11:41:12;;;;;;;19.92;11.18;;;23.70;99.90;;;;;;5058035;28;20087;-81
2023/10/13 11:49:31;;;;;;;19.63;9.95;;;23.80;99.90;;;;;;5039461;28;20421;-75
2023/10/13 11:52:09;;;;;;;19.52;9.75;;;23.90;99.90;;;;;;5046515;28;20045;-78
2023/10/13 11:54:41;;;;;;;20.33;11.40;;;23.90;99.90;;;;;;5038945;28;20182;-76
2023/10/13 11:57:09;;;;;;;19.25;10.95;;;23.90;99.90;;;;;;5039849;28;20055;-75
2023/10/13 11:59:44;;;;;;;18.35;10.38;;;24.00;99.90;;;;;;5037396;28;20041;-73
2023/10/13 12:04:59;;;;;;;20.55;9.23;;;24.20;99.90;;;;;;5046050;28;20221;-75
2023/10/13 12:07:45;;;;;;;15.60;8.60;;;24.20;99.90;;;;;;5041771;28;20069;-76
2023/10/13 12:10:16;;;;;;;17.15;8.15;;;24.10;99.90;;;;;;5042082;28;20075;-76
2023/10/13 12:12:46;;;;;;;15.63;8.77;;;24.10;99.90;;;;;;5043725;28;20029;-76
2023/10/13 12:15:30;;;;;;;17.30;9.10;;;24.10;99.90;;;;;;5043153;28;20048;-77
2023/10/13 12:17:59;;;;;;;20.92;8.43;;;24.20;99.90;;;;;;5042751;28;20045;-76
2023/10/13 12:20:35;;;;;;;19.15;10.35;;;24.20;99.90;;;;;;5043701;28;20567;-77
2023/10/13 12:23:15;;;;;;;22.02;9.68;;;24.20;99.90;;;;;;5041126;28;20069;-77
2023/10/13 12:25:59;;;;;;;17.00;8.60;;;24.20;99.90;;;;;;5041880;28;20037;-77
2023/10/13 12:28:28;;;;;;;16.88;8.23;;;24.20;99.90;;;;;;5042200;28;20041;-76
2023/10/13 12:30:58;;;;;;;19.17;7.93;;;24.30;99.90;;;;;;5042214;28;20036;-77
2023/10/13 12:33:28;;;;;;;17.10;7.88;;;24.30;99.90;;;;;;5041330;28;20065;-75
2023/10/13 12:36:09;;;;;;;18.50;8.38;;;24.30;99.90;;;;;;5042970;28;20067;-78
2023/10/13 12:48:55;;;;;;;18.85;8.50;;;24.40;99.90;;;;;;5042065;28;20048;-76
2023/10/13 12:50:07;;;;;;;16.73;8.07;;;24.50;99.90;;;;;;5042394;28;20116;-77
2023/10/13 12:52:34;;;;;;;16.85;8.35;;;24.70;99.90;;;;;;5062570;28;20060;-77
2023/10/13 12:55:13;;;;;;;25.00;11.98;;;24.70;99.90;;;;;;5062384;28;20898;-76
2023/10/13 12:57:44;;;;;;;18.30;9.23;;;24.70;99.90;;;;;;5062379;28;20044;-77
2023/10/13 13:00:25;;;;;;;16.27;8.27;;;24.70;99.90;;;;;;5064038;28;20044;-78
2023/10/13 13:02:55;;;;;;;17.88;8.60;;;24.60;99.90;;;;;;5044872;28;20045;-77
2023/10/13 13:05:28;;;;;;;15.95;7.95;;;24.70;99.90;;;;;;5061809;28;20036;-76
2023/10/13 13:07:56;;;;;;;19.23;8.82;;;24.70;99.90;;;;;;5060419;28;20090;-75
2023/10/13 13:10:39;;;;;;;17.38;8.10;;;24.70;99.90;;;;;;5062922;28;20551;-76
2023/10/13 13:13:08;;;;;;;19.40;8.38;;;24.70;99.90;;;;;;5064236;28;20049;-76
2023/10/13 13:15:36;;;;;;;13.90;7.15;;;24.80;99.90;;;;;;5058721;28;20040;-77
2023/10/13 13:18:11;;;;;;;12.35;7.32;;;24.80;99.90;;;;;;5059457;28;20059;-78
2023/10/13 13:20:44;;;;;;;15.73;7.93;;;24.80;99.90;;;;;;5059353;28;20039;-77
2023/10/13 13:23:12;;;;;;;17.70;9.38;;;24.80;99.90;;;;;;5059473;28;20072;-77
2023/10/13 13:25:42;;;;;;;17.60;10.25;;;24.80;99.90;;;;;;5041386;28;20048;-76
2023/10/13 13:28:11;;;;;;;15.30;6.70;;;24.80;99.90;;;;;;5060788;28;20044;-78
2023/10/13 13:30:39;;;;;;;14.75;7.65;;;24.80;99.90;;;;;;5061412;28;20033;-75
2023/10/13 13:33:11;;;;;;;15.57;7.22;;;24.70;99.90;;;;;;5061816;28;20113;-78
2023/10/13 13:35:42;;;;;;;18.15;8.13;;;24.70;99.90;;;;;;5060625;28;20098;-75
2023/10/13 13:38:21;;;;;;;14.70;7.70;;;24.60;99.90;;;;;;5059871;28;20052;-78
2023/10/13 13:40:53;;;;;;;20.35;7.22;;;24.50;99.90;;;;;;5059267;28;20488;-76
2023/10/13 13:43:50;;;;;;;17.20;7.97;;;24.50;99.90;;;;;;5060839;28;20041;-75
2023/10/13 13:46:18;;;;;;;15.70;7.10;;;24.50;99.90;;;;;;5061210;28;20056;-77
2023/10/13 13:48:47;;;;;;;16.50;7.10;;;24.50;99.90;;;;;;5059382;28;20037;-76
2023/10/13 13:51:15;;;;;;;13.40;8.20;;;24.60;99.90;;;;;;5060844;28;20583;-78
2023/10/13 13:53:45;;;;;;;11.80;5.85;;;24.60;99.90;;;;;;5059680;28;20044;-77
2023/10/13 13:56:15;;;;;;;20.30;6.80;;;24.60;99.90;;;;;;5058336;28;20146;-79
2023/10/13 13:58:44;;;;;;;13.23;7.05;;;24.60;99.90;;;;;;5059778;28;20198;-78
2023/10/13 14:01:15;;;;;;;16.38;7.13;;;24.50;99.90;;;;;;5059539;28;20062;-77
2023/10/13 14:03:47;;;;;;;14.32;7.43;;;24.50;99.90;;;;;;5060675;28;20041;-76
2023/10/13 14:06:18;;;;;;;17.85;7.55;;;24.50;99.90;;;;;;5062712;28;20044;-76
2023/10/13 14:08:48;;;;;;;14.52;8.85;;;24.50;99.90;;;;;;5042990;28;20037;-75
2023/10/13 14:14:03;;;;;;;16.55;7.55;;;24.50;99.90;;;;;;5005168;28;21215;-76
2023/10/13 14:16:33;;;;;;;16.98;7.65;;;24.50;99.90;;;;;;5060923;28;20185;-76
2023/10/13 14:19:02;;;;;;;14.13;6.93;;;24.50;99.90;;;;;;5060159;28;20056;-77
2023/10/13 14:21:29;;;;;;;13.50;7.30;;;24.50;99.90;;;;;;5058732;28;20041;-78
2023/10/13 14:24:00;;;;;;;14.07;7.60;;;24.50;99.90;;;;;;5063545;28;20033;-78
2023/10/13 14:26:28;;;;;;;16.65;7.38;;;24.50;99.90;;;;;;5063433;28;20102;-75
2023/10/13 14:29:01;;;;;;;18.40;7.75;;;24.50;99.90;;;;;;5061175;28;20565;-77
2023/10/13 14:31:31;;;;;;;14.77;7.43;;;24.50;99.90;;;;;;5063253;28;20111;-77
2023/10/13 14:33:58;;;;;;;20.80;9.02;;;24.40;99.90;;;;;;5046079;28;22568;-75
2023/10/13 14:36:28;;;;;;;17.38;8.25;;;24.40;99.90;;;;;;5063446;28;20073;-75
2023/10/13 14:38:56;;;;;;;20.75;7.90;;;24.40;99.90;;;;;;5045189;28;20078;-77
2023/10/13 14:41:23;;;;;;;17.10;7.57;;;24.30;99.90;;;;;;5062345;28;20510;-75
2023/10/13 14:43:51;;;;;;;14.73;7.32;;;24.30;99.90;;;;;;5060077;28;20045;-73
2023/10/13 14:46:22;;;;;;;19.65;8.35;;;24.30;99.90;;;;;;5066540;28;20037;-78
2023/10/13 14:48:53;;;;;;;18.67;9.52;;;24.20;99.90;;;;;;5060854;28;20055;-79
2023/10/13 14:51:20;;;;;;;15.93;8.30;;;24.20;99.90;;;;;;5063987;28;20041;-77
2023/10/13 14:53:48;;;;;;;16.65;9.80;;;24.10;99.90;;;;;;5065368;28;20043;-75
2023/10/13 14:56:17;;;;;;;22.50;13.73;;;24.10;99.90;;;;;;5067550;28;20056;-77
2023/10/13 14:58:46;;;;;;;39.65;24.20;;;24.10;99.90;;;;;;5071094;28;20044;-77
2023/10/13 15:01:15;;;;;;;43.75;27.13;;;24.00;99.90;;;;;;5067867;28;20041;-75
2023/10/13 15:03:43;;;;;;;50.78;27.92;;;23.90;99.90;;;;;;5069572;28;20140;-74
2023/10/13 15:06:18;;;;;;;51.08;27.92;;;23.90;99.90;;;;;;5067577;28;20053;-76
2023/10/13 15:08:47;;;;;;;45.67;25.58;;;23.80;99.90;;;;;;5067381;28;20060;-73
2023/10/13 15:11:14;;;;;;;35.53;21.08;;;23.80;99.90;;;;;;5061239;28;20044;-74
2023/10/13 15:13:41;;;;;;;36.03;20.55;;;23.70;99.90;;;;;;5058575;28;20036;-79
2023/10/13 15:16:17;;;;;;;31.90;20.10;;;23.60;99.90;;;;;;5043822;28;20432;-76
2023/10/13 15:18:45;;;;;;;37.25;18.98;;;23.50;99.90;;;;;;5062123;28;20676;-75
2023/10/13 15:21:13;;;;;;;34.35;21.48;;;23.40;99.90;;;;;;5059525;28;20143;-75